sensor_id;sensor_type;location;lat;lon;timestamp;P1;durP1;ratioP1;P2;durP2;ratioP2
68940;SDS011;55982;51.476;7.552;2022-08-06T00:01:02;3.72;;;2.28;;
68940;SDS011;55982;51.476;7.552;2022-08-06T00:03:27;6.25;;;2.30;;
68940;SDS011;55982;51.476;7.552;2022-08-06T00:05:53;7.97;;;2.90;;
68940;SDS011;55982;51.476;7.552;2022-08-06T00:08:19;4.72;;;2.10;;
68940;SDS011;55982;51.476;7.552;2022-08-06T00:10:44;5.00;;;2.33;;
68940;SDS011;55982;51.476;7.552;2022-08-06T00:13:10;7.18;;;2.30;;
68940;SDS011;55982;51.476;7.552;2022-08-06T00:15:35;5.93;;;2.90;;
68940;SDS011;55982;51.476;7.552;2022-08-06T00:18:01;3.92;;;2.60;;
68940;SDS011;55982;51.476;7.552;2022-08-06T00:20:26;8.05;;;3.08;;
68940;SDS011;55982;51.476;7.552;2022-08-06T00:22:52;7.45;;;2.70;;
68940;SDS011;55982;51.476;7.552;2022-08-06T00:25:17;7.30;;;2.42;;
68940;SDS011;55982;51.476;7.552;2022-08-06T00:27:43;4.78;;;2.42;;
68940;SDS011;55982;51.476;7.552;2022-08-06T00:30:09;5.13;;;2.58;;
68940;SDS011;55982;51.476;7.552;2022-08-06T00:32:34;3.58;;;2.53;;
68940;SDS011;55982;51.476;7.552;2022-08-06T00:35:00;4.40;;;2.30;;
68940;SDS011;55982;51.476;7.552;2022-08-06T00:37:25;5.30;;;2.42;;
68940;SDS011;55982;51.476;7.552;2022-08-06T00:39:53;5.47;;;2.80;;
68940;SDS011;55982;51.476;7.552;2022-08-06T00:42:19;9.05;;;2.50;;
68940;SDS011;55982;51.476;7.552;2022-08-06T00:44:45;7.75;;;2.80;;
68940;SDS011;55982;51.476;7.552;2022-08-06T00:47:10;7.38;;;2.58;;
68940;SDS011;55982;51.476;7.552;2022-08-06T00:49:36;4.18;;;2.78;;
68940;SDS011;55982;51.476;7.552;2022-08-06T00:52:01;3.42;;;1.90;;
68940;SDS011;55982;51.476;7.552;2022-08-06T00:54:26;9.13;;;2.70;;
68940;SDS011;55982;51.476;7.552;2022-08-06T00:56:52;4.75;;;2.50;;
68940;SDS011;55982;51.476;7.552;2022-08-06T00:59:17;4.10;;;2.50;;
68940;SDS011;55982;51.476;7.552;2022-08-06T01:01:42;8.00;;;2.63;;
68940;SDS011;55982;51.476;7.552;2022-08-06T01:04:08;7.43;;;2.45;;
68940;SDS011;55982;51.476;7.552;2022-08-06T01:06:33;3.38;;;2.40;;
68940;SDS011;55982;51.476;7.552;2022-08-06T01:08:58;12.18;;;2.92;;
68940;SDS011;55982;51.476;7.552;2022-08-06T01:11:24;7.40;;;2.80;;
68940;SDS011;55982;51.476;7.552;2022-08-06T01:13:49;6.28;;;3.13;;
68940;SDS011;55982;51.476;7.552;2022-08-06T01:19:15;5.82;;;2.90;;
68940;SDS011;55982;51.476;7.552;2022-08-06T01:30:17;8.77;;;3.38;;
68940;SDS011;55982;51.476;7.552;2022-08-06T01:32:55;8.30;;;3.28;;
68940;SDS011;55982;51.476;7.552;2022-08-06T01:35:30;3.85;;;2.70;;
68940;SDS011;55982;51.476;7.552;2022-08-06T01:38:08;4.78;;;2.90;;
68940;SDS011;55982;51.476;7.552;2022-08-06T01:40:38;5.72;;;3.17;;
68940;SDS011;55982;51.476;7.552;2022-08-06T01:43:08;5.90;;;2.80;;
68940;SDS011;55982;51.476;7.552;2022-08-06T01:45:36;5.05;;;2.78;;
68940;SDS011;55982;51.476;7.552;2022-08-06T01:48:04;5.75;;;3.33;;
68940;SDS011;55982;51.476;7.552;2022-08-06T01:50:38;5.63;;;3.17;;
68940;SDS011;55982;51.476;7.552;2022-08-06T01:53:06;8.73;;;3.42;;
68940;SDS011;55982;51.476;7.552;2022-08-06T01:55:39;9.07;;;3.35;;
68940;SDS011;55982;51.476;7.552;2022-08-06T01:58:07;5.45;;;3.40;;
68940;SDS011;55982;51.476;7.552;2022-08-06T02:00:37;8.07;;;3.33;;
68940;SDS011;55982;51.476;7.552;2022-08-06T02:03:09;6.60;;;3.30;;
68940;SDS011;55982;51.476;7.552;2022-08-06T02:05:40;5.93;;;3.50;;
68940;SDS011;55982;51.476;7.552;2022-08-06T02:08:08;5.30;;;3.40;;
68940;SDS011;55982;51.476;7.552;2022-08-06T02:10:38;5.95;;;3.20;;
68940;SDS011;55982;51.476;7.552;2022-08-06T02:13:05;7.90;;;3.55;;
68940;SDS011;55982;51.476;7.552;2022-08-06T02:15:33;7.78;;;3.83;;
68940;SDS011;55982;51.476;7.552;2022-08-06T02:18:02;7.18;;;3.38;;
68940;SDS011;55982;51.476;7.552;2022-08-06T02:20:34;5.95;;;3.90;;
68940;SDS011;55982;51.476;7.552;2022-08-06T02:23:02;5.68;;;3.70;;
68940;SDS011;55982;51.476;7.552;2022-08-06T02:25:29;7.45;;;4.13;;
68940;SDS011;55982;51.476;7.552;2022-08-06T02:27:56;4.65;;;3.45;;
68940;SDS011;55982;51.476;7.552;2022-08-06T02:30:24;4.32;;;3.40;;
68940;SDS011;55982;51.476;7.552;2022-08-06T02:32:52;6.70;;;3.80;;
68940;SDS011;55982;51.476;7.552;2022-08-06T02:35:18;5.60;;;3.38;;
68940;SDS011;55982;51.476;7.552;2022-08-06T02:38:03;4.68;;;3.70;;
68940;SDS011;55982;51.476;7.552;2022-08-06T02:40:37;7.35;;;4.43;;
68940;SDS011;55982;51.476;7.552;2022-08-06T02:43:18;8.88;;;4.20;;
68940;SDS011;55982;51.476;7.552;2022-08-06T02:45:58;14.00;;;4.05;;
68940;SDS011;55982;51.476;7.552;2022-08-06T02:48:30;6.45;;;4.03;;
68940;SDS011;55982;51.476;7.552;2022-08-06T02:51:04;8.38;;;4.78;;
68940;SDS011;55982;51.476;7.552;2022-08-06T02:53:46;8.10;;;4.32;;
68940;SDS011;55982;51.476;7.552;2022-08-06T02:56:28;7.88;;;4.43;;
68940;SDS011;55982;51.476;7.552;2022-08-06T02:58:56;5.72;;;4.13;;
68940;SDS011;55982;51.476;7.552;2022-08-06T03:01:25;13.23;;;4.38;;
68940;SDS011;55982;51.476;7.552;2022-08-06T03:03:55;6.38;;;4.50;;
68940;SDS011;55982;51.476;7.552;2022-08-06T03:06:23;9.05;;;4.70;;
68940;SDS011;55982;51.476;7.552;2022-08-06T03:08:52;5.55;;;4.38;;
68940;SDS011;55982;51.476;7.552;2022-08-06T03:11:20;9.82;;;4.68;;
68940;SDS011;55982;51.476;7.552;2022-08-06T03:13:47;8.05;;;4.20;;
68940;SDS011;55982;51.476;7.552;2022-08-06T03:16:14;6.18;;;4.70;;
68940;SDS011;55982;51.476;7.552;2022-08-06T03:18:41;8.55;;;4.75;;
68940;SDS011;55982;51.476;7.552;2022-08-06T03:21:10;5.70;;;4.65;;
68940;SDS011;55982;51.476;7.552;2022-08-06T03:23:37;7.82;;;5.00;;
68940;SDS011;55982;51.476;7.552;2022-08-06T03:26:04;10.48;;;5.03;;
68940;SDS011;55982;51.476;7.552;2022-08-06T03:28:32;6.45;;;4.38;;
68940;SDS011;55982;51.476;7.552;2022-08-06T03:30:58;5.72;;;4.38;;
68940;SDS011;55982;51.476;7.552;2022-08-06T03:33:25;12.18;;;6.22;;
68940;SDS011;55982;51.476;7.552;2022-08-06T03:35:51;9.35;;;5.07;;
68940;SDS011;55982;51.476;7.552;2022-08-06T03:38:19;8.88;;;5.10;;
68940;SDS011;55982;51.476;7.552;2022-08-06T03:40:46;5.82;;;4.78;;
68940;SDS011;55982;51.476;7.552;2022-08-06T03:43:13;9.38;;;5.00;;
68940;SDS011;55982;51.476;7.552;2022-08-06T03:45:39;9.68;;;4.93;;
68940;SDS011;55982;51.476;7.552;2022-08-06T03:48:09;7.38;;;5.00;;
68940;SDS011;55982;51.476;7.552;2022-08-06T03:50:40;5.45;;;4.50;;
68940;SDS011;55982;51.476;7.552;2022-08-06T03:53:24;11.02;;;5.00;;
68940;SDS011;55982;51.476;7.552;2022-08-06T03:56:00;8.07;;;5.03;;
68940;SDS011;55982;51.476;7.552;2022-08-06T03:58:27;10.10;;;5.68;;
68940;SDS011;55982;51.476;7.552;2022-08-06T04:00:55;9.35;;;4.97;;
68940;SDS011;55982;51.476;7.552;2022-08-06T04:03:24;7.95;;;5.25;;
68940;SDS011;55982;51.476;7.552;2022-08-06T04:05:50;10.30;;;5.75;;
68940;SDS011;55982;51.476;7.552;2022-08-06T04:08:18;10.60;;;5.05;;
68940;SDS011;55982;51.476;7.552;2022-08-06T04:10:45;9.30;;;5.85;;
68940;SDS011;55982;51.476;7.552;2022-08-06T04:13:14;7.70;;;5.70;;
68940;SDS011;55982;51.476;7.552;2022-08-06T04:15:41;12.93;;;5.18;;
68940;SDS011;55982;51.476;7.552;2022-08-06T04:18:09;10.15;;;5.72;;
68940;SDS011;55982;51.476;7.552;2022-08-06T04:20:38;8.25;;;6.03;;
68940;SDS011;55982;51.476;7.552;2022-08-06T04:23:05;6.80;;;5.15;;
68940;SDS011;55982;51.476;7.552;2022-08-06T04:25:31;9.65;;;5.88;;
68940;SDS011;55982;51.476;7.552;2022-08-06T04:28:01;9.70;;;6.18;;
68940;SDS011;55982;51.476;7.552;2022-08-06T04:30:27;10.38;;;5.57;;
68940;SDS011;55982;51.476;7.552;2022-08-06T04:32:54;10.18;;;6.05;;
68940;SDS011;55982;51.476;7.552;2022-08-06T04:35:19;9.55;;;5.78;;
68940;SDS011;55982;51.476;7.552;2022-08-06T04:37:46;11.38;;;5.82;;
68940;SDS011;55982;51.476;7.552;2022-08-06T04:40:12;10.43;;;6.53;;
68940;SDS011;55982;51.476;7.552;2022-08-06T04:42:38;12.40;;;6.57;;
68940;SDS011;55982;51.476;7.552;2022-08-06T04:45:05;11.15;;;6.70;;
68940;SDS011;55982;51.476;7.552;2022-08-06T04:47:32;7.93;;;6.10;;
68940;SDS011;55982;51.476;7.552;2022-08-06T04:49:57;11.55;;;6.75;;
68940;SDS011;55982;51.476;7.552;2022-08-06T04:52:24;9.23;;;6.22;;
68940;SDS011;55982;51.476;7.552;2022-08-06T04:54:51;11.27;;;7.55;;
68940;SDS011;55982;51.476;7.552;2022-08-06T04:57:16;10.40;;;6.38;;
68940;SDS011;55982;51.476;7.552;2022-08-06T04:59:42;11.38;;;7.38;;
68940;SDS011;55982;51.476;7.552;2022-08-06T05:02:07;12.60;;;7.22;;
68940;SDS011;55982;51.476;7.552;2022-08-06T05:04:33;10.98;;;6.85;;
68940;SDS011;55982;51.476;7.552;2022-08-06T05:09:55;8.70;;;6.75;;
68940;SDS011;55982;51.476;7.552;2022-08-06T05:12:43;10.93;;;7.25;;
68940;SDS011;55982;51.476;7.552;2022-08-06T05:17:48;10.43;;;7.07;;
68940;SDS011;55982;51.476;7.552;2022-08-06T05:20:21;9.45;;;6.22;;
68940;SDS011;55982;51.476;7.552;2022-08-06T05:22:47;9.48;;;6.30;;
68940;SDS011;55982;51.476;7.552;2022-08-06T05:25:16;9.10;;;6.45;;
68940;SDS011;55982;51.476;7.552;2022-08-06T05:27:42;12.30;;;6.38;;
68940;SDS011;55982;51.476;7.552;2022-08-06T05:30:08;9.65;;;5.57;;
68940;SDS011;55982;51.476;7.552;2022-08-06T05:32:47;11.00;;;5.75;;
68940;SDS011;55982;51.476;7.552;2022-08-06T05:35:13;11.18;;;6.65;;
68940;SDS011;55982;51.476;7.552;2022-08-06T05:37:39;6.35;;;5.70;;
68940;SDS011;55982;51.476;7.552;2022-08-06T05:40:05;10.10;;;5.82;;
68940;SDS011;55982;51.476;7.552;2022-08-06T05:42:31;10.45;;;6.18;;
68940;SDS011;55982;51.476;7.552;2022-08-06T05:44:56;9.60;;;5.30;;
68940;SDS011;55982;51.476;7.552;2022-08-06T05:47:23;12.50;;;5.38;;
68940;SDS011;55982;51.476;7.552;2022-08-06T05:50:26;9.23;;;5.00;;
68940;SDS011;55982;51.476;7.552;2022-08-06T05:53:29;11.23;;;5.55;;
68940;SDS011;55982;51.476;7.552;2022-08-06T05:55:42;7.88;;;5.43;;
68940;SDS011;55982;51.476;7.552;2022-08-06T05:58:14;6.00;;;4.68;;
68940;SDS011;55982;51.476;7.552;2022-08-06T06:00:43;8.18;;;5.13;;
68940;SDS011;55982;51.476;7.552;2022-08-06T06:03:14;8.15;;;4.80;;
68940;SDS011;55982;51.476;7.552;2022-08-06T06:05:41;10.68;;;4.88;;
68940;SDS011;55982;51.476;7.552;2022-08-06T06:08:08;6.38;;;4.72;;
68940;SDS011;55982;51.476;7.552;2022-08-06T06:10:34;9.05;;;4.93;;
68940;SDS011;55982;51.476;7.552;2022-08-06T06:13:03;13.68;;;4.65;;
68940;SDS011;55982;51.476;7.552;2022-08-06T06:15:30;8.73;;;4.78;;
68940;SDS011;55982;51.476;7.552;2022-08-06T06:21:15;5.20;;;4.13;;
68940;SDS011;55982;51.476;7.552;2022-08-06T06:23:52;7.35;;;4.40;;
68940;SDS011;55982;51.476;7.552;2022-08-06T06:31:49;5.28;;;4.30;;
68940;SDS011;55982;51.476;7.552;2022-08-06T06:34:39;10.40;;;4.80;;
68940;SDS011;55982;51.476;7.552;2022-08-06T06:42:40;6.22;;;3.78;;
68940;SDS011;55982;51.476;7.552;2022-08-06T06:45:12;8.35;;;4.22;;
68940;SDS011;55982;51.476;7.552;2022-08-06T06:47:55;9.30;;;4.43;;
68940;SDS011;55982;51.476;7.552;2022-08-06T06:50:33;8.05;;;3.65;;
68940;SDS011;55982;51.476;7.552;2022-08-06T06:53:02;8.15;;;4.25;;
68940;SDS011;55982;51.476;7.552;2022-08-06T06:55:32;8.18;;;4.38;;
68940;SDS011;55982;51.476;7.552;2022-08-06T07:00:44;8.27;;;3.80;;
68940;SDS011;55982;51.476;7.552;2022-08-06T07:03:10;6.18;;;3.42;;
68940;SDS011;55982;51.476;7.552;2022-08-06T07:05:38;5.18;;;2.65;;
68940;SDS011;55982;51.476;7.552;2022-08-06T07:08:08;4.00;;;1.70;;
68940;SDS011;55982;51.476;7.552;2022-08-06T07:10:36;8.77;;;2.05;;
68940;SDS011;55982;51.476;7.552;2022-08-06T07:13:05;8.00;;;2.28;;
68940;SDS011;55982;51.476;7.552;2022-08-06T07:15:31;4.88;;;1.75;;
68940;SDS011;55982;51.476;7.552;2022-08-06T07:17:57;3.80;;;1.27;;
68940;SDS011;55982;51.476;7.552;2022-08-06T07:20:26;3.10;;;1.30;;
68940;SDS011;55982;51.476;7.552;2022-08-06T07:22:54;5.80;;;1.23;;
68940;SDS011;55982;51.476;7.552;2022-08-06T07:25:21;6.63;;;1.50;;
68940;SDS011;55982;51.476;7.552;2022-08-06T07:27:48;3.25;;;1.40;;
68940;SDS011;55982;51.476;7.552;2022-08-06T07:30:15;4.22;;;1.17;;
68940;SDS011;55982;51.476;7.552;2022-08-06T07:32:43;3.72;;;1.63;;
68940;SDS011;55982;51.476;7.552;2022-08-06T07:35:10;4.85;;;1.30;;
68940;SDS011;55982;51.476;7.552;2022-08-06T07:37:37;4.05;;;1.27;;
68940;SDS011;55982;51.476;7.552;2022-08-06T07:40:10;3.40;;;1.33;;
68940;SDS011;55982;51.476;7.552;2022-08-06T07:42:42;4.85;;;1.17;;
68940;SDS011;55982;51.476;7.552;2022-08-06T07:45:10;3.90;;;1.38;;
68940;SDS011;55982;51.476;7.552;2022-08-06T07:47:39;4.97;;;1.33;;
68940;SDS011;55982;51.476;7.552;2022-08-06T07:50:09;2.50;;;1.38;;
68940;SDS011;55982;51.476;7.552;2022-08-06T07:52:38;5.63;;;1.23;;
68940;SDS011;55982;51.476;7.552;2022-08-06T07:55:05;2.55;;;0.80;;
68940;SDS011;55982;51.476;7.552;2022-08-06T07:57:33;4.53;;;1.23;;
68940;SDS011;55982;51.476;7.552;2022-08-06T08:00:00;4.10;;;1.00;;
68940;SDS011;55982;51.476;7.552;2022-08-06T08:02:25;1.45;;;0.85;;
68940;SDS011;55982;51.476;7.552;2022-08-06T08:04:51;2.38;;;0.60;;
68940;SDS011;55982;51.476;7.552;2022-08-06T08:07:35;1.67;;;0.50;;
68940;SDS011;55982;51.476;7.552;2022-08-06T08:10:02;1.67;;;0.60;;
68940;SDS011;55982;51.476;7.552;2022-08-06T08:12:28;2.13;;;0.50;;
68940;SDS011;55982;51.476;7.552;2022-08-06T08:14:53;4.07;;;0.68;;
68940;SDS011;55982;51.476;7.552;2022-08-06T08:17:19;2.40;;;0.50;;
68940;SDS011;55982;51.476;7.552;2022-08-06T08:19:47;2.20;;;0.70;;
68940;SDS011;55982;51.476;7.552;2022-08-06T08:22:16;2.42;;;0.70;;
68940;SDS011;55982;51.476;7.552;2022-08-06T08:24:44;3.03;;;1.00;;
68940;SDS011;55982;51.476;7.552;2022-08-06T08:27:11;3.03;;;0.98;;
68940;SDS011;55982;51.476;7.552;2022-08-06T08:29:38;3.55;;;0.70;;
68940;SDS011;55982;51.476;7.552;2022-08-06T08:32:05;3.42;;;0.70;;
68940;SDS011;55982;51.476;7.552;2022-08-06T08:34:31;1.95;;;0.60;;
68940;SDS011;55982;51.476;7.552;2022-08-06T08:36:57;2.35;;;0.52;;
68940;SDS011;55982;51.476;7.552;2022-08-06T08:39:23;1.45;;;0.43;;
68940;SDS011;55982;51.476;7.552;2022-08-06T08:41:52;2.50;;;0.77;;
68940;SDS011;55982;51.476;7.552;2022-08-06T08:44:23;3.97;;;0.73;;
68940;SDS011;55982;51.476;7.552;2022-08-06T08:46:54;2.30;;;0.60;;
68940;SDS011;55982;51.476;7.552;2022-08-06T08:49:27;1.80;;;0.45;;
68940;SDS011;55982;51.476;7.552;2022-08-06T08:51:59;4.28;;;0.60;;
68940;SDS011;55982;51.476;7.552;2022-08-06T08:54:27;2.03;;;0.70;;
68940;SDS011;55982;51.476;7.552;2022-08-06T08:56:55;4.30;;;0.90;;
68940;SDS011;55982;51.476;7.552;2022-08-06T08:59:21;2.67;;;0.63;;
68940;SDS011;55982;51.476;7.552;2022-08-06T09:01:47;1.33;;;0.40;;
68940;SDS011;55982;51.476;7.552;2022-08-06T09:04:12;0.45;;;0.32;;
68940;SDS011;55982;51.476;7.552;2022-08-06T09:06:38;2.42;;;0.50;;
68940;SDS011;55982;51.476;7.552;2022-08-06T09:09:05;3.00;;;0.68;;
68940;SDS011;55982;51.476;7.552;2022-08-06T09:11:31;2.17;;;0.50;;
68940;SDS011;55982;51.476;7.552;2022-08-06T09:14:05;5.97;;;1.00;;
68940;SDS011;55982;51.476;7.552;2022-08-06T09:16:32;4.95;;;0.50;;
68940;SDS011;55982;51.476;7.552;2022-08-06T09:18:59;3.45;;;0.50;;
68940;SDS011;55982;51.476;7.552;2022-08-06T09:21:25;3.80;;;1.23;;
68940;SDS011;55982;51.476;7.552;2022-08-06T09:23:51;2.78;;;0.40;;
68940;SDS011;55982;51.476;7.552;2022-08-06T09:26:17;3.40;;;0.47;;
68940;SDS011;55982;51.476;7.552;2022-08-06T09:28:43;3.15;;;0.40;;
68940;SDS011;55982;51.476;7.552;2022-08-06T09:31:10;1.25;;;0.50;;
68940;SDS011;55982;51.476;7.552;2022-08-06T09:33:38;1.88;;;0.50;;
68940;SDS011;55982;51.476;7.552;2022-08-06T09:38:32;3.45;;;0.30;;
68940;SDS011;55982;51.476;7.552;2022-08-06T09:41:10;1.80;;;0.40;;
68940;SDS011;55982;51.476;7.552;2022-08-06T09:43:37;1.50;;;0.47;;
68940;SDS011;55982;51.476;7.552;2022-08-06T09:46:03;2.42;;;0.40;;
68940;SDS011;55982;51.476;7.552;2022-08-06T09:48:29;2.17;;;0.30;;
68940;SDS011;55982;51.476;7.552;2022-08-06T09:50:55;1.77;;;0.50;;
68940;SDS011;55982;51.476;7.552;2022-08-06T09:53:20;0.80;;;0.45;;
68940;SDS011;55982;51.476;7.552;2022-08-06T09:55:50;0.52;;;0.20;;
68940;SDS011;55982;51.476;7.552;2022-08-06T10:00:56;1.67;;;0.30;;
68940;SDS011;55982;51.476;7.552;2022-08-06T10:03:22;1.65;;;0.32;;
68940;SDS011;55982;51.476;7.552;2022-08-06T10:06:02;0.80;;;0.30;;
68940;SDS011;55982;51.476;7.552;2022-08-06T10:08:32;2.95;;;0.50;;
68940;SDS011;55982;51.476;7.552;2022-08-06T10:10:57;0.68;;;0.35;;
68940;SDS011;55982;51.476;7.552;2022-08-06T10:13:27;3.15;;;0.40;;
68940;SDS011;55982;51.476;7.552;2022-08-06T10:15:56;2.20;;;0.30;;
68940;SDS011;55982;51.476;7.552;2022-08-06T10:18:30;2.80;;;0.40;;
68940;SDS011;55982;51.476;7.552;2022-08-06T10:21:07;0.20;;;0.20;;
68940;SDS011;55982;51.476;7.552;2022-08-06T10:23:35;1.23;;;0.52;;
68940;SDS011;55982;51.476;7.552;2022-08-06T10:26:02;1.92;;;0.40;;
68940;SDS011;55982;51.476;7.552;2022-08-06T10:28:39;0.80;;;0.30;;
68940;SDS011;55982;51.476;7.552;2022-08-06T10:31:07;1.13;;;0.30;;
68940;SDS011;55982;51.476;7.552;2022-08-06T10:36:34;1.60;;;0.30;;
68940;SDS011;55982;51.476;7.552;2022-08-06T10:39:02;1.05;;;0.30;;
68940;SDS011;55982;51.476;7.552;2022-08-06T10:41:29;2.50;;;0.50;;
68940;SDS011;55982;51.476;7.552;2022-08-06T10:43:55;1.42;;;0.40;;
68940;SDS011;55982;51.476;7.552;2022-08-06T10:46:22;2.40;;;0.30;;
68940;SDS011;55982;51.476;7.552;2022-08-06T10:48:48;1.02;;;0.40;;
68940;SDS011;55982;51.476;7.552;2022-08-06T10:51:14;1.20;;;0.35;;
68940;SDS011;55982;51.476;7.552;2022-08-06T10:53:41;2.60;;;0.57;;
68940;SDS011;55982;51.476;7.552;2022-08-06T10:56:10;1.85;;;0.50;;
68940;SDS011;55982;51.476;7.552;2022-08-06T10:58:37;0.32;;;0.30;;
68940;SDS011;55982;51.476;7.552;2022-08-06T11:01:08;0.60;;;0.30;;
68940;SDS011;55982;51.476;7.552;2022-08-06T11:03:58;1.98;;;0.30;;
68940;SDS011;55982;51.476;7.552;2022-08-06T11:09:31;1.98;;;0.40;;
68940;SDS011;55982;51.476;7.552;2022-08-06T11:14:54;2.92;;;0.50;;
68940;SDS011;55982;51.476;7.552;2022-08-06T11:17:20;0.50;;;0.28;;
68940;SDS011;55982;51.476;7.552;2022-08-06T11:19:47;0.50;;;0.20;;
68940;SDS011;55982;51.476;7.552;2022-08-06T11:25:05;1.23;;;0.40;;
68940;SDS011;55982;51.476;7.552;2022-08-06T11:27:49;0.90;;;0.30;;
68940;SDS011;55982;51.476;7.552;2022-08-06T11:30:17;1.00;;;0.30;;
68940;SDS011;55982;51.476;7.552;2022-08-06T11:32:46;1.83;;;0.20;;
68940;SDS011;55982;51.476;7.552;2022-08-06T11:37:57;2.03;;;0.43;;
68940;SDS011;55982;51.476;7.552;2022-08-06T11:40:24;0.88;;;0.17;;
68940;SDS011;55982;51.476;7.552;2022-08-06T11:42:50;1.90;;;0.30;;
68940;SDS011;55982;51.476;7.552;2022-08-06T11:45:15;1.08;;;0.20;;
68940;SDS011;55982;51.476;7.552;2022-08-06T11:50:30;1.65;;;0.28;;
68940;SDS011;55982;51.476;7.552;2022-08-06T11:52:55;0.50;;;0.25;;
68940;SDS011;55982;51.476;7.552;2022-08-06T11:55:21;0.80;;;0.30;;
68940;SDS011;55982;51.476;7.552;2022-08-06T11:57:46;0.28;;;0.10;;
68940;SDS011;55982;51.476;7.552;2022-08-06T12:00:14;1.40;;;0.20;;
68940;SDS011;55982;51.476;7.552;2022-08-06T12:05:08;0.50;;;0.20;;
68940;SDS011;55982;51.476;7.552;2022-08-06T12:10:36;0.52;;;0.30;;
68940;SDS011;55982;51.476;7.552;2022-08-06T12:13:01;1.23;;;0.40;;
68940;SDS011;55982;51.476;7.552;2022-08-06T12:17:58;4.07;;;0.40;;
68940;SDS011;55982;51.476;7.552;2022-08-06T12:20:41;0.40;;;0.30;;
68940;SDS011;55982;51.476;7.552;2022-08-06T12:23:09;0.80;;;0.15;;
68940;SDS011;55982;51.476;7.552;2022-08-06T12:25:45;1.02;;;0.20;;
68940;SDS011;55982;51.476;7.552;2022-08-06T12:28:12;1.95;;;0.40;;
68940;SDS011;55982;51.476;7.552;2022-08-06T12:30:43;0.90;;;0.32;;
68940;SDS011;55982;51.476;7.552;2022-08-06T12:33:10;1.50;;;0.30;;
68940;SDS011;55982;51.476;7.552;2022-08-06T12:35:47;1.33;;;0.30;;
68940;SDS011;55982;51.476;7.552;2022-08-06T12:38:13;3.40;;;0.38;;
68940;SDS011;55982;51.476;7.552;2022-08-06T12:40:38;0.40;;;0.20;;
68940;SDS011;55982;51.476;7.552;2022-08-06T12:45:30;0.80;;;0.10;;
68940;SDS011;55982;51.476;7.552;2022-08-06T12:48:00;2.80;;;0.28;;
68940;SDS011;55982;51.476;7.552;2022-08-06T12:50:33;0.20;;;0.20;;
68940;SDS011;55982;51.476;7.552;2022-08-06T12:53:15;1.00;;;0.20;;
68940;SDS011;55982;51.476;7.552;2022-08-06T12:55:48;0.73;;;0.20;;
68940;SDS011;55982;51.476;7.552;2022-08-06T12:58:16;0.73;;;0.47;;
68940;SDS011;55982;51.476;7.552;2022-08-06T13:00:45;0.55;;;0.20;;
68940;SDS011;55982;51.476;7.552;2022-08-06T13:03:13;2.40;;;0.30;;
68940;SDS011;55982;51.476;7.552;2022-08-06T13:05:40;0.93;;;0.25;;
68940;SDS011;55982;51.476;7.552;2022-08-06T13:08:08;0.32;;;0.13;;
68940;SDS011;55982;51.476;7.552;2022-08-06T13:10:34;5.10;;;0.40;;
68940;SDS011;55982;51.476;7.552;2022-08-06T13:13:01;1.88;;;0.30;;
68940;SDS011;55982;51.476;7.552;2022-08-06T13:15:29;0.82;;;0.40;;
68940;SDS011;55982;51.476;7.552;2022-08-06T13:18:14;1.45;;;0.50;;
68940;SDS011;55982;51.476;7.552;2022-08-06T13:20:46;2.67;;;0.40;;
68940;SDS011;55982;51.476;7.552;2022-08-06T13:23:26;2.75;;;0.43;;
68940;SDS011;55982;51.476;7.552;2022-08-06T13:26:09;1.45;;;0.40;;
68940;SDS011;55982;51.476;7.552;2022-08-06T13:28:38;1.42;;;0.30;;
68940;SDS011;55982;51.476;7.552;2022-08-06T13:31:16;1.52;;;0.30;;
68940;SDS011;55982;51.476;7.552;2022-08-06T13:33:42;1.92;;;0.30;;
68940;SDS011;55982;51.476;7.552;2022-08-06T13:36:08;1.88;;;0.52;;
68940;SDS011;55982;51.476;7.552;2022-08-06T13:38:36;0.82;;;0.20;;
68940;SDS011;55982;51.476;7.552;2022-08-06T13:41:02;1.13;;;0.20;;
68940;SDS011;55982;51.476;7.552;2022-08-06T13:48:36;0.68;;;0.10;;
68940;SDS011;55982;51.476;7.552;2022-08-06T13:51:02;2.25;;;0.35;;
68940;SDS011;55982;51.476;7.552;2022-08-06T13:53:27;1.73;;;0.50;;
68940;SDS011;55982;51.476;7.552;2022-08-06T13:55:52;1.38;;;0.25;;
68940;SDS011;55982;51.476;7.552;2022-08-06T13:58:18;1.05;;;0.38;;
68940;SDS011;55982;51.476;7.552;2022-08-06T14:00:43;1.35;;;0.25;;
68940;SDS011;55982;51.476;7.552;2022-08-06T14:03:11;0.77;;;0.30;;
68940;SDS011;55982;51.476;7.552;2022-08-06T14:05:37;0.63;;;0.20;;
68940;SDS011;55982;51.476;7.552;2022-08-06T14:08:03;3.72;;;0.40;;
68940;SDS011;55982;51.476;7.552;2022-08-06T14:10:30;1.27;;;0.30;;
68940;SDS011;55982;51.476;7.552;2022-08-06T14:12:55;0.77;;;0.30;;
68940;SDS011;55982;51.476;7.552;2022-08-06T14:15:39;1.17;;;0.30;;
68940;SDS011;55982;51.476;7.552;2022-08-06T14:18:05;1.23;;;0.40;;
68940;SDS011;55982;51.476;7.552;2022-08-06T14:20:30;0.98;;;0.40;;
68940;SDS011;55982;51.476;7.552;2022-08-06T14:22:56;0.85;;;0.28;;
68940;SDS011;55982;51.476;7.552;2022-08-06T14:25:22;0.73;;;0.20;;
68940;SDS011;55982;51.476;7.552;2022-08-06T14:27:48;1.63;;;0.30;;
68940;SDS011;55982;51.476;7.552;2022-08-06T14:30:13;0.82;;;0.30;;
68940;SDS011;55982;51.476;7.552;2022-08-06T14:32:40;1.55;;;0.20;;
68940;SDS011;55982;51.476;7.552;2022-08-06T14:35:06;0.32;;;0.30;;
68940;SDS011;55982;51.476;7.552;2022-08-06T14:37:32;0.68;;;0.20;;
68940;SDS011;55982;51.476;7.552;2022-08-06T14:39:58;0.32;;;0.20;;
68940;SDS011;55982;51.476;7.552;2022-08-06T14:42:23;1.92;;;0.20;;
68940;SDS011;55982;51.476;7.552;2022-08-06T14:45:07;1.70;;;0.30;;
68940;SDS011;55982;51.476;7.552;2022-08-06T14:47:33;2.47;;;0.40;;
68940;SDS011;55982;51.476;7.552;2022-08-06T14:49:59;0.77;;;0.28;;
68940;SDS011;55982;51.476;7.552;2022-08-06T14:52:24;6.18;;;0.85;;
68940;SDS011;55982;51.476;7.552;2022-08-06T14:54:50;0.75;;;0.38;;
68940;SDS011;55982;51.476;7.552;2022-08-06T14:57:16;0.82;;;0.30;;
68940;SDS011;55982;51.476;7.552;2022-08-06T14:59:45;1.23;;;0.28;;
68940;SDS011;55982;51.476;7.552;2022-08-06T15:02:11;0.80;;;0.30;;
68940;SDS011;55982;51.476;7.552;2022-08-06T15:04:37;0.82;;;0.30;;
68940;SDS011;55982;51.476;7.552;2022-08-06T15:07:03;0.85;;;0.20;;
68940;SDS011;55982;51.476;7.552;2022-08-06T15:09:29;2.85;;;1.55;;
68940;SDS011;55982;51.476;7.552;2022-08-06T15:11:55;1.02;;;0.30;;
68940;SDS011;55982;51.476;7.552;2022-08-06T15:14:20;0.65;;;0.30;;
68940;SDS011;55982;51.476;7.552;2022-08-06T15:16:46;1.15;;;0.55;;
68940;SDS011;55982;51.476;7.552;2022-08-06T15:19:12;2.33;;;0.50;;
68940;SDS011;55982;51.476;7.552;2022-08-06T15:21:40;1.38;;;0.30;;
68940;SDS011;55982;51.476;7.552;2022-08-06T15:24:06;4.95;;;1.88;;
68940;SDS011;55982;51.476;7.552;2022-08-06T15:26:31;3.53;;;1.23;;
68940;SDS011;55982;51.476;7.552;2022-08-06T15:28:57;1.13;;;0.40;;
68940;SDS011;55982;51.476;7.552;2022-08-06T15:31:22;1.00;;;0.30;;
68940;SDS011;55982;51.476;7.552;2022-08-06T15:33:47;0.60;;;0.20;;
68940;SDS011;55982;51.476;7.552;2022-08-06T15:36:13;0.52;;;0.20;;
68940;SDS011;55982;51.476;7.552;2022-08-06T15:38:38;2.35;;;0.32;;
68940;SDS011;55982;51.476;7.552;2022-08-06T15:41:04;0.40;;;0.30;;
68940;SDS011;55982;51.476;7.552;2022-08-06T15:43:30;0.98;;;0.30;;
68940;SDS011;55982;51.476;7.552;2022-08-06T15:45:57;1.60;;;0.43;;
68940;SDS011;55982;51.476;7.552;2022-08-06T15:48:27;0.45;;;0.25;;
68940;SDS011;55982;51.476;7.552;2022-08-06T15:50:54;0.38;;;0.20;;
68940;SDS011;55982;51.476;7.552;2022-08-06T15:53:23;0.45;;;0.28;;
68940;SDS011;55982;51.476;7.552;2022-08-06T15:55:49;2.63;;;0.35;;
68940;SDS011;55982;51.476;7.552;2022-08-06T15:58:15;1.75;;;0.40;;
68940;SDS011;55982;51.476;7.552;2022-08-06T16:00:40;3.47;;;0.38;;
68940;SDS011;55982;51.476;7.552;2022-08-06T16:03:08;0.52;;;0.22;;
68940;SDS011;55982;51.476;7.552;2022-08-06T16:05:37;1.50;;;0.60;;